createdAt,value
2022-10-17T00:00:50.768Z,99306.28
2022-10-17T00:03:18.030Z,99306.88
2022-10-17T00:05:46.936Z,99305.19
2022-10-17T00:08:15.818Z,99303.47
2022-10-17T00:10:42.980Z,99306.81
2022-10-17T00:13:10.851Z,99304.59
2022-10-17T00:15:38.376Z,99305.69
2022-10-17T00:18:05.227Z,99313.34
2022-10-17T00:20:35.513Z,99309.44
2022-10-17T00:23:02.392Z,99315.59
2022-10-17T00:25:29.387Z,99304.00
2022-10-17T00:27:56.253Z,99303.66
2022-10-17T00:30:23.145Z,99305.16
2022-10-17T00:32:50.041Z,99305.78
2022-10-17T00:35:17.174Z,99308.13
2022-10-17T00:37:44.077Z,99299.56
2022-10-17T00:40:11.565Z,99296.41
2022-10-17T00:42:38.794Z,99296.66
2022-10-17T00:45:08.707Z,99293.78
2022-10-17T00:47:37.025Z,99303.19
2022-10-17T00:50:05.619Z,99291.84
2022-10-17T00:52:33.179Z,99293.41
2022-10-17T00:55:06.291Z,99292.09
2022-10-17T00:57:33.330Z,99291.53
2022-10-17T01:00:03.188Z,99291.06
2022-10-17T01:02:30.408Z,99295.25
2022-10-17T01:04:59.630Z,99295.06
2022-10-17T01:07:33.151Z,99299.72
2022-10-17T01:10:04.067Z,99296.38
2022-10-17T01:12:36.605Z,99293.75
2022-10-17T01:15:06.182Z,99294.06
2022-10-17T01:17:41.288Z,99281.63
2022-10-17T01:20:17.057Z,99290.50
2022-10-17T01:23:11.102Z,99292.28
2022-10-17T01:25:51.314Z,99290.09
2022-10-17T01:28:37.043Z,99289.00
2022-10-17T01:31:13.908Z,99292.25
2022-10-17T01:33:57.040Z,99288.00
2022-10-17T01:36:44.126Z,99286.13
2022-10-17T01:39:34.412Z,99290.59
2022-10-17T01:42:17.259Z,99288.69
2022-10-17T01:45:00.171Z,99295.22
2022-10-17T01:47:33.803Z,99289.63
2022-10-17T01:50:13.639Z,99296.41
2022-10-17T01:52:46.567Z,99303.09
2022-10-17T01:55:20.621Z,99302.38
2022-10-17T01:57:55.201Z,99298.94
2022-10-17T02:00:26.845Z,99297.16
2022-10-17T02:02:59.275Z,99302.56
2022-10-17T02:05:32.814Z,99309.44
2022-10-17T02:07:59.843Z,99312.88
2022-10-17T02:10:32.354Z,99315.84
2022-10-17T02:13:23.109Z,99318.72
2022-10-17T02:16:27.428Z,99319.34
2022-10-17T02:19:16.122Z,99328.19
2022-10-17T02:22:01.379Z,99330.00
2022-10-17T02:24:42.285Z,99329.47
2022-10-17T02:27:14.165Z,99320.53
2022-10-17T02:29:49.032Z,99327.44
2022-10-17T02:32:23.813Z,99329.00
2022-10-17T02:34:55.451Z,99332.88
2022-10-17T02:37:28.093Z,99332.94
2022-10-17T02:39:59.305Z,99336.09
2022-10-17T02:42:28.719Z,99341.91
2022-10-17T02:45:01.185Z,99344.31
2022-10-17T02:47:43.974Z,99339.84
2022-10-17T02:50:11.587Z,99335.13
2022-10-17T02:52:57.329Z,99336.66
2022-10-17T02:55:39.277Z,99340.53
2022-10-17T02:58:12.838Z,99348.38
2022-10-17T03:00:41.230Z,99346.28
2022-10-17T03:03:22.974Z,99349.63
2022-10-17T03:05:52.236Z,99350.44
2022-10-17T03:08:23.027Z,99345.88
2022-10-17T03:10:50.395Z,99352.34
2022-10-17T03:13:18.286Z,99353.31
2022-10-17T03:15:46.287Z,99362.84
2022-10-17T03:18:13.703Z,99350.25
2022-10-17T03:20:40.593Z,99359.84
2022-10-17T03:23:08.858Z,99356.53
2022-10-17T03:25:36.688Z,99348.00
2022-10-17T03:28:05.554Z,99352.03
2022-10-17T03:30:33.956Z,99353.50
2022-10-17T03:33:01.427Z,99359.38
2022-10-17T03:35:28.381Z,99352.19
2022-10-17T03:37:58.649Z,99350.31
2022-10-17T03:40:27.517Z,99351.56
2022-10-17T03:42:54.492Z,99358.84
2022-10-17T03:45:21.330Z,99356.16
2022-10-17T03:47:48.533Z,99367.19
2022-10-17T03:50:15.855Z,99360.75
2022-10-17T03:52:48.438Z,99350.19
2022-10-17T03:55:16.039Z,99361.78
2022-10-17T03:57:45.556Z,99365.41
2022-10-17T04:00:14.931Z,99367.56
2022-10-17T04:02:42.009Z,99364.19
2022-10-17T04:05:14.565Z,99367.28
2022-10-17T04:07:41.674Z,99360.94
2022-10-17T04:10:11.145Z,99360.06
2022-10-17T04:12:38.495Z,99368.84
2022-10-17T04:15:06.421Z,99357.44
2022-10-17T04:17:37.262Z,99364.00
2022-10-17T04:20:06.750Z,99363.22
2022-10-17T04:22:34.287Z,99363.88
2022-10-17T04:25:01.319Z,99360.09
2022-10-17T04:27:33.985Z,99359.19
2022-10-17T04:30:01.427Z,99365.91
2022-10-17T04:32:31.145Z,99368.63
2022-10-17T04:35:06.566Z,99368.31
2022-10-17T04:37:33.871Z,99370.28
2022-10-17T04:40:07.182Z,99375.13
2022-10-17T04:42:35.103Z,99381.47
2022-10-17T04:45:02.010Z,99392.41
2022-10-17T04:47:28.963Z,99394.56
2022-10-17T04:49:56.790Z,99400.03
2022-10-17T04:52:25.173Z,99400.03
2022-10-17T04:54:53.006Z,99400.44
2022-10-17T04:57:21.404Z,99408.84
2022-10-17T05:00:17.928Z,99408.28
2022-10-17T05:03:03.993Z,99408.56
2022-10-17T05:05:31.657Z,99402.09
2022-10-17T05:08:00.499Z,99407.59
2022-10-17T05:10:37.040Z,99413.47
2022-10-17T05:13:05.396Z,99414.56
2022-10-17T05:15:33.704Z,99412.91
2022-10-17T05:18:01.759Z,99417.94
2022-10-17T05:20:30.236Z,99423.09
2022-10-17T05:22:59.781Z,99420.47
2022-10-17T05:25:31.388Z,99426.69
2022-10-17T05:27:58.347Z,99433.69
2022-10-17T05:30:25.582Z,99447.78
2022-10-17T05:32:57.527Z,99440.06
2022-10-17T05:35:25.015Z,99449.94
2022-10-17T05:37:52.996Z,99453.38
2022-10-17T05:40:21.073Z,99449.53
2022-10-17T05:42:51.537Z,99444.50
2022-10-17T05:45:19.499Z,99455.13
2022-10-17T05:47:46.514Z,99450.53
2022-10-17T05:50:13.612Z,99460.25
2022-10-17T05:52:59.282Z,99471.03
2022-10-17T05:55:26.256Z,99466.44
2022-10-17T05:57:54.084Z,99469.78
2022-10-17T06:00:22.762Z,99482.59
2022-10-17T06:02:56.380Z,99487.03
2022-10-17T06:05:24.480Z,99484.50
2022-10-17T06:07:52.780Z,99494.91
2022-10-17T06:10:21.621Z,99495.63
2022-10-17T06:12:48.798Z,99492.69
2022-10-17T06:15:15.928Z,99500.69
2022-10-17T06:17:47.659Z,99489.84
2022-10-17T06:20:14.748Z,99499.91
2022-10-17T06:22:41.736Z,99501.56
2022-10-17T06:25:15.085Z,99504.09
2022-10-17T06:27:42.332Z,99495.13
2022-10-17T06:30:10.803Z,99505.81
2022-10-17T06:32:37.885Z,99509.63
2022-10-17T06:35:06.413Z,99510.28
2022-10-17T06:37:36.518Z,99512.66
2022-10-17T06:40:10.473Z,99519.44
2022-10-17T06:42:41.642Z,99516.22
2022-10-17T06:45:24.080Z,99514.47
2022-10-17T06:48:08.651Z,99529.16
2022-10-17T06:50:43.729Z,99522.09
2022-10-17T06:53:20.273Z,99528.28
2022-10-17T06:56:19.525Z,99526.84
2022-10-17T06:58:58.691Z,99531.25
2022-10-17T07:01:31.776Z,99534.84
2022-10-17T07:04:00.451Z,99528.72
2022-10-17T07:06:29.105Z,99539.97
2022-10-17T07:08:59.563Z,99543.34
2022-10-17T07:11:26.453Z,99536.81
2022-10-17T07:13:53.484Z,99544.13
2022-10-17T07:16:22.363Z,99532.00
2022-10-17T07:18:57.217Z,99537.78
2022-10-17T07:21:25.656Z,99544.03
2022-10-17T07:23:53.060Z,99537.63
2022-10-17T07:26:21.055Z,99538.22
2022-10-17T07:28:54.456Z,99545.97
2022-10-17T07:31:31.132Z,99543.75
2022-10-17T07:34:00.358Z,99543.66
2022-10-17T07:36:27.925Z,99544.81
2022-10-17T07:38:56.305Z,99543.41
2022-10-17T07:41:24.759Z,99544.50
2022-10-17T07:43:51.727Z,99546.06
2022-10-17T07:46:22.352Z,99537.22
2022-10-17T07:48:50.043Z,99537.97
2022-10-17T07:51:20.348Z,99538.97
2022-10-17T07:53:48.841Z,99530.47
2022-10-17T07:56:16.455Z,99527.25
2022-10-17T07:58:43.460Z,99533.41
2022-10-17T08:01:15.637Z,99530.97
2022-10-17T08:03:48.815Z,99533.91
2022-10-17T08:06:15.929Z,99537.38
2022-10-17T08:08:43.710Z,99524.75
2022-10-17T08:11:12.792Z,99536.28
2022-10-17T08:13:40.775Z,99534.66
2022-10-17T08:16:10.652Z,99542.31
2022-10-17T08:18:40.071Z,99533.38
2022-10-17T08:21:08.559Z,99529.50
2022-10-17T08:23:36.556Z,99536.34
2022-10-17T08:26:07.014Z,99534.22
2022-10-17T08:28:38.964Z,99541.91
2022-10-17T08:31:12.168Z,99542.03
2022-10-17T08:33:39.131Z,99548.44
2022-10-17T08:36:07.366Z,99538.41
2022-10-17T08:38:36.384Z,99542.00
2022-10-17T08:41:14.735Z,99546.09
2022-10-17T08:44:03.186Z,99543.34
2022-10-17T08:46:34.356Z,99534.06
2022-10-17T08:49:06.470Z,99541.19
2022-10-17T08:51:39.534Z,99550.66
2022-10-17T08:54:35.643Z,99547.22
2022-10-17T08:57:02.727Z,99540.03
2022-10-17T08:59:31.004Z,99552.19
2022-10-17T09:02:30.127Z,99552.38
2022-10-17T09:05:22.436Z,99547.47
2022-10-17T09:08:32.017Z,99551.09
2022-10-17T09:11:32.623Z,99553.34
2022-10-17T09:14:19.008Z,99544.81
2022-10-17T09:17:07.199Z,99547.50
2022-10-17T09:19:38.369Z,99545.72
2022-10-17T09:22:12.882Z,99542.97
2022-10-17T09:24:51.647Z,99550.94
2022-10-17T09:27:32.935Z,99547.78
2022-10-17T09:30:44.253Z,99540.06
2022-10-17T09:33:49.839Z,99532.59
2022-10-17T09:36:28.947Z,99540.78
2022-10-17T09:38:59.888Z,99541.34
2022-10-17T09:41:49.502Z,99530.97
2022-10-17T10:16:53.886Z,99523.88
2022-10-17T10:19:30.068Z,99534.41
2022-10-17T10:22:02.998Z,99526.56
2022-10-17T10:24:31.182Z,99532.69
2022-10-17T10:27:01.349Z,99531.97
2022-10-17T10:29:30.822Z,99526.38
2022-10-17T10:32:26.301Z,99524.13
2022-10-17T10:34:58.452Z,99512.28
2022-10-17T10:37:40.358Z,99522.94
2022-10-17T10:40:19.362Z,99514.03
2022-10-17T10:43:21.660Z,99510.09
2022-10-17T10:45:49.307Z,99513.41
2022-10-17T10:48:46.716Z,99517.97
2022-10-17T10:51:17.996Z,99511.84
2022-10-17T10:53:52.114Z,99504.72
2022-10-17T10:56:53.345Z,99516.84
2022-10-17T10:59:59.123Z,99511.28
2022-10-17T11:02:53.957Z,99499.91
2022-10-17T11:05:48.706Z,99513.69
2022-10-17T11:08:34.325Z,99503.50
2022-10-17T11:11:07.172Z,99504.63
2022-10-17T11:13:43.884Z,99511.44
2022-10-17T11:16:19.603Z,99509.13
2022-10-17T11:18:53.287Z,99516.59
2022-10-17T11:21:43.920Z,99497.66
2022-10-17T11:24:35.988Z,99486.56
2022-10-17T11:27:07.909Z,99489.66
2022-10-17T11:29:38.814Z,99486.13
2022-10-17T11:32:15.693Z,99489.41
2022-10-17T11:34:58.182Z,99491.88
2022-10-17T11:37:34.507Z,99490.81
2022-10-17T11:40:06.841Z,99499.28
2022-10-17T11:43:00.716Z,99493.38
2022-10-17T11:45:33.690Z,99485.53
2022-10-17T11:48:19.932Z,99497.84
2022-10-17T11:54:19.163Z,99489.88
2022-10-17T11:57:04.503Z,99483.53
2022-10-17T11:59:52.525Z,99481.41
2022-10-17T12:02:46.582Z,99495.91
2022-10-17T12:05:26.693Z,99490.72
2022-10-17T12:08:18.255Z,99485.97
2022-10-17T12:10:58.946Z,99488.81
2022-10-17T12:13:28.544Z,99488.38
2022-10-17T12:16:34.721Z,99485.09
2022-10-17T12:19:01.562Z,99486.56
2022-10-17T12:21:31.436Z,99497.47
2022-10-17T12:23:59.259Z,99491.88
2022-10-17T12:26:28.864Z,99495.22
2022-10-17T12:28:57.234Z,99499.31
2022-10-17T12:31:33.378Z,99496.19
2022-10-17T12:34:02.257Z,99495.28
2022-10-17T12:36:29.349Z,99488.28
2022-10-17T12:39:02.048Z,99487.22
2022-10-17T12:41:40.871Z,99498.25
2022-10-17T12:44:14.030Z,99493.94
2022-10-17T12:46:47.390Z,99487.16
2022-10-17T12:49:21.671Z,99489.16
2022-10-17T12:52:09.853Z,99495.44
2022-10-17T12:54:47.744Z,99494.75
2022-10-17T12:57:39.012Z,99493.16
2022-10-17T13:00:14.435Z,99496.25
2022-10-17T13:02:42.274Z,99488.25
2022-10-17T13:05:22.426Z,99495.13
2022-10-17T13:07:50.225Z,99493.38
2022-10-17T13:10:29.531Z,99487.41
2022-10-17T13:13:18.338Z,99487.03
2022-10-17T13:15:54.708Z,99492.34
2022-10-17T13:18:24.579Z,99493.41
2022-10-17T13:20:59.394Z,99490.44
2022-10-17T13:23:30.571Z,99487.84
2022-10-17T13:26:06.420Z,99491.41
2022-10-17T13:28:37.132Z,99494.97
2022-10-17T13:31:06.994Z,99495.66
2022-10-17T13:33:35.943Z,99500.38
2022-10-17T13:36:04.814Z,99495.19
2022-10-17T13:38:35.706Z,99507.28
2022-10-17T13:44:03.409Z,99501.94
2022-10-17T13:46:38.071Z,99505.97
2022-10-17T13:49:13.021Z,99505.19
2022-10-17T13:51:45.031Z,99513.47
2022-10-17T13:54:28.357Z,99497.41
2022-10-17T13:56:59.517Z,99504.97
2022-10-17T13:59:32.476Z,99503.78
2022-10-17T14:02:01.744Z,99511.25
2022-10-17T14:04:35.507Z,99508.88
2022-10-17T14:08:05.853Z,99502.09
2022-10-17T14:10:33.759Z,99504.66
2022-10-17T14:13:01.929Z,99506.28
2022-10-17T14:15:31.620Z,99505.91
2022-10-17T14:18:06.690Z,99504.09
2022-10-17T14:23:37.973Z,99502.06
2022-10-17T14:26:21.294Z,99506.34
2022-10-17T14:29:05.113Z,99518.84
2022-10-17T14:31:36.907Z,99514.56
2022-10-17T14:34:05.540Z,99520.28
2022-10-17T14:36:39.984Z,99513.16
2022-10-17T14:39:18.142Z,99519.69
2022-10-17T14:41:47.356Z,99524.28
2022-10-17T14:44:30.507Z,99529.75
2022-10-17T14:47:18.181Z,99530.19
2022-10-17T14:49:52.179Z,99522.34
2022-10-17T14:52:19.153Z,99534.53
2022-10-17T14:54:48.796Z,99526.84
2022-10-17T14:57:28.719Z,99537.16
2022-10-17T14:59:57.315Z,99532.00
2022-10-17T15:02:26.057Z,99538.56
2022-10-17T15:04:53.724Z,99541.03
2022-10-17T15:07:24.227Z,99540.31
2022-10-17T15:09:53.301Z,99544.25
2022-10-17T15:12:22.811Z,99550.31
2022-10-17T15:14:50.823Z,99545.78
2022-10-17T15:17:25.025Z,99555.41
2022-10-17T15:19:55.476Z,99553.59
2022-10-17T15:22:23.005Z,99559.03
2022-10-17T15:24:50.173Z,99561.31
2022-10-17T15:27:25.001Z,99560.72
2022-10-17T15:29:53.138Z,99561.19
2022-10-17T15:32:20.509Z,99562.19
2022-10-17T15:34:47.543Z,99560.91
2022-10-17T15:37:22.901Z,99568.00
2022-10-17T15:39:54.838Z,99569.75
2022-10-17T15:42:31.567Z,99565.16
2022-10-17T15:44:58.655Z,99568.66
2022-10-17T15:47:27.543Z,99570.16
2022-10-17T15:49:55.780Z,99568.94
2022-10-17T15:52:24.448Z,99572.22
2022-10-17T15:54:52.507Z,99572.94
2022-10-17T15:57:25.739Z,99577.53
2022-10-17T15:59:54.129Z,99581.97
2022-10-17T16:02:23.048Z,99583.44
2022-10-17T16:04:51.525Z,99583.03
2022-10-17T16:07:20.096Z,99584.34
2022-10-17T16:09:47.117Z,99586.75
2022-10-17T16:12:24.302Z,99595.88
2022-10-17T16:14:51.257Z,99589.41
2022-10-17T16:17:18.448Z,99589.88
2022-10-17T16:19:45.508Z,99590.34
2022-10-17T16:22:21.032Z,99596.44
2022-10-17T16:24:47.971Z,99597.38
2022-10-17T16:27:14.896Z,99596.88
2022-10-17T16:29:41.726Z,99595.31
2022-10-17T16:32:10.255Z,99596.00
2022-10-17T16:34:37.197Z,99605.06
2022-10-17T16:37:04.055Z,99601.59
2022-10-17T16:39:31.012Z,99601.94
2022-10-17T16:41:58.699Z,99609.97
2022-10-17T16:44:25.775Z,99605.03
2022-10-17T16:46:52.674Z,99617.50
2022-10-17T16:49:19.523Z,99611.84
2022-10-17T16:51:46.515Z,99611.78
2022-10-17T16:54:13.384Z,99613.81
2022-10-17T16:56:42.177Z,99613.34
2022-10-17T16:59:11.919Z,99613.47
2022-10-17T17:01:38.882Z,99613.09
2022-10-17T17:04:05.806Z,99622.28
2022-10-17T17:06:32.809Z,99618.06
2022-10-17T17:08:59.881Z,99623.84
2022-10-17T17:11:28.906Z,99621.44
2022-10-17T17:13:57.524Z,99619.25
2022-10-17T17:16:28.063Z,99626.63
2022-10-17T17:19:00.483Z,99618.84
2022-10-17T17:21:28.037Z,99627.50
2022-10-17T17:23:58.880Z,99631.31
2022-10-17T17:26:28.648Z,99626.00
2022-10-17T17:28:58.774Z,99629.47
2022-10-17T17:31:28.514Z,99626.50
2022-10-17T17:36:31.583Z,99639.44
2022-10-17T17:39:00.307Z,99639.66
2022-10-17T17:41:27.881Z,99637.97
2022-10-17T17:43:56.027Z,99644.09
2022-10-17T17:46:24.797Z,99644.69
2022-10-17T17:48:53.417Z,99643.44
2022-10-17T17:51:28.475Z,99645.13
2022-10-17T17:53:56.916Z,99640.63
2022-10-17T17:56:27.235Z,99647.88
2022-10-17T17:58:59.536Z,99647.25
2022-10-17T18:01:29.546Z,99651.81
2022-10-17T18:03:59.102Z,99652.31
2022-10-17T18:06:27.279Z,99652.31
2022-10-17T18:08:57.876Z,99657.50
2022-10-17T18:11:26.467Z,99656.47
2022-10-17T18:13:58.102Z,99658.56
2022-10-17T18:16:26.767Z,99656.56
2022-10-17T18:18:53.953Z,99658.31
2022-10-17T18:21:21.223Z,99657.66
2022-10-17T18:23:49.149Z,99650.50
2022-10-17T18:26:16.350Z,99651.09
2022-10-17T18:28:44.201Z,99662.16
2022-10-17T18:31:13.045Z,99662.53
2022-10-17T18:33:40.118Z,99657.84
2022-10-17T18:36:09.937Z,99656.88
2022-10-17T18:38:37.401Z,99667.34
2022-10-17T18:41:05.588Z,99663.06
2022-10-17T18:43:36.752Z,99661.78
2022-10-17T18:46:12.438Z,99661.59
2022-10-17T18:48:44.700Z,99666.69
2022-10-17T18:51:13.075Z,99658.28
2022-10-17T18:53:41.613Z,99664.59
2022-10-17T18:56:09.726Z,99665.44
2022-10-17T18:58:38.158Z,99664.81
2022-10-17T19:01:07.538Z,99675.63
2022-10-17T19:03:34.420Z,99673.75
2022-10-17T19:06:08.070Z,99675.63
2022-10-17T19:08:36.139Z,99668.38
2022-10-17T19:11:17.803Z,99677.41
2022-10-17T19:16:23.520Z,99676.25
2022-10-17T19:19:05.242Z,99680.66
2022-10-17T19:21:32.193Z,99671.28
2022-10-17T19:24:05.264Z,99672.25
2022-10-17T19:26:35.495Z,99678.34
2022-10-17T19:29:03.162Z,99674.03
2022-10-17T19:31:31.887Z,99683.44
2022-10-17T19:33:59.419Z,99677.53
2022-10-17T19:36:32.502Z,99683.38
2022-10-17T19:39:05.894Z,99683.69
2022-10-17T19:41:33.744Z,99692.06
2022-10-17T19:44:00.876Z,99682.25
2022-10-17T19:46:29.382Z,99685.25
2022-10-17T19:48:56.787Z,99684.88
2022-10-17T19:51:24.717Z,99681.06
2022-10-17T19:53:53.848Z,99681.47
2022-10-17T19:56:21.990Z,99677.81
2022-10-17T19:58:50.082Z,99677.81
2022-10-17T20:01:20.247Z,99679.59
2022-10-17T20:03:47.550Z,99676.34
2022-10-17T20:06:14.987Z,99684.09
2022-10-17T20:08:42.494Z,99670.41
2022-10-17T20:11:13.223Z,99670.00
2022-10-17T20:13:40.673Z,99665.34
2022-10-17T20:16:10.745Z,99662.16
2022-10-17T20:18:38.341Z,99665.50
2022-10-17T20:21:08.605Z,99661.03
2022-10-17T20:23:35.835Z,99669.25
2022-10-17T20:26:33.170Z,99668.19
2022-10-17T20:28:54.039Z,99663.59
2022-10-17T20:31:21.669Z,99665.84
2022-10-17T20:33:48.541Z,99654.81
2022-10-17T20:36:16.631Z,99648.53
2022-10-17T20:38:43.548Z,99655.16
2022-10-17T20:41:11.029Z,99653.03
2022-10-17T20:43:38.349Z,99644.56
2022-10-17T20:46:22.905Z,99647.94
2022-10-17T20:48:55.438Z,99638.00
2022-10-17T20:51:22.437Z,99641.09
2022-10-17T20:53:49.551Z,99640.59
2022-10-17T20:56:25.598Z,99641.72
2022-10-17T20:58:57.917Z,99642.34
2022-10-17T21:01:26.165Z,99644.06
2022-10-17T21:03:53.479Z,99639.19
2022-10-17T21:06:21.730Z,99645.47
2022-10-17T21:08:49.406Z,99641.66
2022-10-17T21:11:21.466Z,99630.53
2022-10-17T21:13:54.958Z,99624.81
2022-10-17T21:16:22.280Z,99628.44
2022-10-17T21:18:52.389Z,99634.88
2022-10-17T21:21:23.567Z,99623.56
2022-10-17T21:23:51.579Z,99620.84
2022-10-17T21:26:18.815Z,99615.53
2022-10-17T21:28:47.627Z,99615.94
2022-10-17T21:31:20.658Z,99609.53
2022-10-17T21:33:51.015Z,99609.81
2022-10-17T21:36:19.250Z,99607.97
2022-10-17T21:38:48.173Z,99614.47
2022-10-17T21:41:17.334Z,99609.38
2022-10-17T21:43:44.774Z,99608.19
2022-10-17T21:46:19.411Z,99606.47
2022-10-17T21:48:47.591Z,99594.56
2022-10-17T21:51:16.638Z,99597.44
2022-10-17T21:53:44.271Z,99605.38
2022-10-17T21:56:13.724Z,99598.78
2022-10-17T21:58:41.201Z,99602.06
2022-10-17T22:01:11.497Z,99609.22
2022-10-17T22:03:45.688Z,99605.78
2022-10-17T22:06:39.261Z,99611.59
2022-10-17T22:09:08.632Z,99609.06
2022-10-17T22:11:36.115Z,99615.25
2022-10-17T22:14:06.042Z,99614.31
2022-10-17T22:16:33.310Z,99614.56
2022-10-17T22:19:05.847Z,99612.72
2022-10-17T22:21:35.439Z,99621.81
2022-10-17T22:24:06.256Z,99615.16
2022-10-17T22:26:35.487Z,99611.16
2022-10-17T22:29:04.447Z,99611.31
2022-10-17T22:31:31.820Z,99612.47
2022-10-17T22:33:58.737Z,99609.78
2022-10-17T22:36:25.811Z,99614.34
2022-10-17T22:38:52.732Z,99608.03
2022-10-17T22:41:20.585Z,99609.81
2022-10-17T22:43:47.436Z,99611.44
2022-10-17T22:46:16.315Z,99620.38
2022-10-17T22:48:43.682Z,99616.00
2022-10-17T22:51:11.063Z,99624.41
2022-10-17T22:53:38.072Z,99627.53
2022-10-17T22:56:09.617Z,99622.69
2022-10-17T22:58:37.146Z,99626.47
2022-10-17T23:01:05.853Z,99625.22
2022-10-17T23:03:33.611Z,99631.09
2022-10-17T23:06:01.006Z,99637.66
2022-10-17T23:08:28.329Z,99624.22
2022-10-17T23:10:55.308Z,99628.94
2022-10-17T23:13:22.245Z,99623.44
2022-10-17T23:15:56.713Z,99624.28
2022-10-17T23:18:25.781Z,99630.19
2022-10-17T23:20:52.833Z,99628.94
2022-10-17T23:23:20.378Z,99622.75
2022-10-17T23:25:47.990Z,99622.03
2022-10-17T23:28:15.073Z,99622.19
2022-10-17T23:30:42.154Z,99618.00
2022-10-17T23:33:11.887Z,99615.94
2022-10-17T23:35:39.071Z,99613.28
2022-10-17T23:38:06.094Z,99615.59
2022-10-17T23:40:34.870Z,99607.22
2022-10-17T23:43:02.245Z,99604.84
2022-10-17T23:45:31.266Z,99603.25
2022-10-17T23:48:00.420Z,99603.66
2022-10-17T23:50:27.328Z,99611.84
2022-10-17T23:52:54.285Z,99613.28
2022-10-17T23:55:21.219Z,99607.06
2022-10-17T23:57:48.107Z,99607.47
